Time;durP1;ratioP1;P1;durP2;ratioP2;P2;SDS_P1;SDS_P2;PMS_P1;PMS_P2;Temp;Humidity;BMP_temperature;BMP_pressure;BME280_temperature;BME280_humidity;BME280_pressure;Samples;Min_cycle;Max_cycle;Signal;HPM_P1;HPM_P2
2021/09/20 00:01:36;;;;;;;;;;;;;;;5.97;83.06;99661.75;5025648;28;19928;-90
2021/09/20 00:04:03;;;;;;;;;;;;;;;5.97;83.43;99659.03;5041886;28;19925;-83
2021/09/20 00:06:28;;;;;;;;;;;;;;;5.97;83.43;99647.38;5037086;28;19928;-83
2021/09/20 00:08:55;;;;;;;;;;;;;;;5.93;83.37;99654.41;5031316;28;19929;-88
2021/09/20 00:11:21;;;;;;;;;;;;;;;5.96;83.67;99654.69;5041156;28;19969;-92
2021/09/20 00:13:47;;;;;;;;;;;;;;;5.91;83.49;99646.53;5037516;28;19928;-82
2021/09/20 00:16:14;;;;;;;;;;;;;;;5.95;83.36;99642.19;5034002;28;19932;-83
2021/09/20 00:18:40;;;;;;;;;;;;;;;5.98;83.39;99638.13;5034280;28;20301;-83
2021/09/20 00:21:07;;;;;;;;;;;;;;;6.00;83.28;99642.19;5016259;28;20019;-82
2021/09/20 00:23:33;;;;;;;;;;;;;;;5.96;83.41;99634.88;5040570;28;20453;-84
2021/09/20 00:26:00;;;;;;;;;;;;;;;5.95;83.71;99635.97;5034345;28;19932;-82
2021/09/20 00:28:26;;;;;;;;;;;;;;;5.96;83.33;99633.00;5034363;28;20377;-81
2021/09/20 00:30:53;;;;;;;;;;;;;;;5.91;83.67;99627.53;5016635;28;19925;-94
2021/09/20 00:33:19;;;;;;;;;;;;;;;5.94;83.48;99618.06;5034917;28;19931;-81
2021/09/20 00:35:46;;;;;;;;;;;;;;;5.98;83.59;99624.56;5019867;28;19935;-86
2021/09/20 00:38:12;;;;;;;;;;;;;;;5.94;83.49;99620.78;5016463;28;19925;-81
2021/09/20 00:40:38;;;;;;;;;;;;;;;5.96;83.65;99622.13;5034410;28;19956;-91
2021/09/20 00:43:04;;;;;;;;;;;;;;;6.04;83.28;99623.47;5016624;28;20010;-82
2021/09/20 00:45:31;;;;;;;;;;;;;;;6.05;83.25;99627.78;5034047;28;19941;-92
2021/09/20 00:50:25;;;;;;;;;;;;;;;6.02;82.69;99631.88;5033811;28;19929;-86
2021/09/20 00:52:53;;;;;;;;;;;;;;;6.01;83.06;99624.81;5033945;28;19932;-88
2021/09/20 00:55:19;;;;;;;;;;;;;;;6.04;83.33;99637.03;5015574;28;20350;-93
2021/09/20 01:00:12;;;;;;;;;;;;;;;6.01;83.53;99626.72;5033534;28;19925;-92
2021/09/20 01:02:40;;;;;;;;;;;;;;;6.05;83.36;99625.09;5041027;28;20321;-87
2021/09/20 01:05:07;;;;;;;;;;;;;;;6.04;83.17;99621.56;5053943;28;19925;-83
2021/09/20 01:07:34;;;;;;;;;;;;;;;6.03;82.94;99611.00;5036742;28;19929;-96
2021/09/20 01:10:00;;;;;;;;;;;;;;;6.03;82.98;99617.22;5051260;28;19925;-83
2021/09/20 01:12:27;;;;;;;;;;;;;;;5.96;83.19;99613.16;5012700;28;20417;-85
2021/09/20 01:14:57;;;;;;;;;;;;;;;5.91;83.37;99602.31;5014363;28;20484;-83
2021/09/20 01:17:24;;;;;;;;;;;;;;;5.99;83.55;99615.31;5018793;28;20063;-92
2021/09/20 01:19:50;;;;;;;;;;;;;;;6.02;83.24;99614.78;5038885;28;19920;-85
2021/09/20 01:22:18;;;;;;;;;;;;;;;6.00;83.34;99615.06;5055868;28;19978;-85
2021/09/20 01:27:14;;;;;;;;;;;;;;;5.97;83.26;99610.19;5037770;28;19921;-84
2021/09/20 01:29:40;;;;;;;;;;;;;;;5.96;82.92;99608.56;5036666;28;19931;-91
2021/09/20 01:32:06;;;;;;;;;;;;;;;5.99;83.16;99608.00;5017142;28;19972;-85
2021/09/20 01:34:33;;;;;;;;;;;;;;;6.02;83.10;99603.91;5034761;28;19953;-85
2021/09/20 01:37:00;;;;;;;;;;;;;;;6.01;82.88;99613.16;5036801;28;19925;-85
2021/09/20 01:39:27;;;;;;;;;;;;;;;5.95;83.20;99606.91;4998334;28;20015;-85
2021/09/20 01:41:54;;;;;;;;;;;;;;;6.01;83.08;99605.81;5015635;28;20024;-95
2021/09/20 01:44:20;;;;;;;;;;;;;;;5.95;82.95;99603.41;5025634;28;19933;-92
2021/09/20 01:46:48;;;;;;;;;;;;;;;5.97;83.06;99598.53;5023480;28;20469;-85
2021/09/20 01:49:14;;;;;;;;;;;;;;;5.97;83.14;99595.81;5025298;28;19925;-85
2021/09/20 01:51:41;;;;;;;;;;;;;;;5.95;83.05;99597.97;5019503;28;19958;-95
2021/09/20 01:54:08;;;;;;;;;;;;;;;6.00;82.74;99587.13;5017191;28;20293;-85
2021/09/20 01:56:35;;;;;;;;;;;;;;;5.98;82.93;99600.13;5018565;28;19925;-96
2021/09/20 01:59:00;;;;;;;;;;;;;;;5.93;82.96;99592.84;5036420;28;20305;-86
2021/09/20 02:03:53;;;;;;;;;;;;;;;5.97;83.10;99591.19;5035743;28;20421;-86
2021/09/20 02:06:20;;;;;;;;;;;;;;;5.96;83.14;99592.28;5034360;28;19928;-85
2021/09/20 02:08:46;;;;;;;;;;;;;;;6.02;83.10;99587.63;5033546;28;19929;-85
2021/09/20 02:11:12;;;;;;;;;;;;;;;6.00;82.97;99578.97;5033887;28;20397;-84
2021/09/20 02:13:38;;;;;;;;;;;;;;;5.96;82.67;99597.72;5016629;28;20382;-85
2021/09/20 02:16:05;;;;;;;;;;;;;;;5.93;82.71;99587.41;5016481;28;19925;-85
2021/09/20 02:18:31;;;;;;;;;;;;;;;5.96;82.88;99575.16;5034023;28;19925;-84
2021/09/20 02:20:59;;;;;;;;;;;;;;;5.98;82.91;99581.16;5033612;28;19960;-85
2021/09/20 02:23:24;;;;;;;;;;;;;;;5.98;82.78;99590.09;5015641;28;19972;-89
2021/09/20 02:25:51;;;;;;;;;;;;;;;5.94;82.93;99593.66;5015327;28;19925;-85
2021/09/20 02:28:17;;;;;;;;;;;;;;;5.93;82.87;99590.13;5033358;28;19932;-85
2021/09/20 02:30:44;;;;;;;;;;;;;;;5.90;83.08;99585.22;5015254;28;19925;-95
2021/09/20 02:33:09;;;;;;;;;;;;;;;5.98;83.11;99592.00;5032458;28;19925;-94
2021/09/20 02:35:35;;;;;;;;;;;;;;;5.98;83.01;99589.28;5033281;28;19929;-85
2021/09/20 02:38:01;;;;;;;;;;;;;;;6.05;82.66;99581.66;5032281;28;19948;-84
2021/09/20 02:40:27;;;;;;;;;;;;;;;6.00;82.96;99581.69;5032242;28;19948;-84
2021/09/20 02:42:53;;;;;;;;;;;;;;;5.99;83.04;99585.47;5015902;28;19925;-85
2021/09/20 02:45:20;;;;;;;;;;;;;;;6.04;83.24;99593.63;5015876;28;20302;-85
2021/09/20 02:47:46;;;;;;;;;;;;;;;6.00;83.01;99593.34;5032832;28;19952;-84
2021/09/20 02:50:12;;;;;;;;;;;;;;;6.03;82.87;99592.00;5015325;28;19925;-85
2021/09/20 02:52:38;;;;;;;;;;;;;;;6.00;82.71;99587.13;5032488;28;19929;-84
2021/09/20 02:55:06;;;;;;;;;;;;;;;6.04;82.79;99591.72;5032953;28;19944;-85
2021/09/20 02:57:32;;;;;;;;;;;;;;;6.06;82.85;99580.56;5045879;28;19929;-85
2021/09/20 02:59:57;;;;;;;;;;;;;;;6.05;82.44;99595.22;5012142;28;20019;-86
2021/09/20 03:02:23;;;;;;;;;;;;;;;6.02;82.92;99590.34;4992004;28;19952;-85
2021/09/20 03:04:51;;;;;;;;;;;;;;;6.04;83.13;99585.47;4993088;28;19921;-85
2021/09/20 03:07:17;;;;;;;;;;;;;;;6.07;83.20;99593.88;4994146;28;19947;-85
2021/09/20 03:09:45;;;;;;;;;;;;;;;6.07;83.04;99593.06;4994354;28;19932;-88
2021/09/20 03:12:11;;;;;;;;;;;;;;;6.04;82.92;99589.00;4991427;28;19956;-85
2021/09/20 03:14:38;;;;;;;;;;;;;;;5.99;83.07;99591.72;4993671;28;19926;-85
2021/09/20 03:17:04;;;;;;;;;;;;;;;5.99;83.12;99594.44;4992383;28;19944;-95
2021/09/20 03:19:32;;;;;;;;;;;;;;;5.97;83.37;99595.81;4992583;28;20387;-88
2021/09/20 03:21:58;;;;;;;;;;;;;;;6.00;83.58;99596.06;4992944;28;19932;-85
2021/09/20 03:24:24;;;;;;;;;;;;;;;5.99;83.44;99599.84;4984361;28;20020;-84
2021/09/20 03:26:50;;;;;;;;;;;;;;;5.99;83.26;99597.13;4992412;28;20475;-85
2021/09/20 03:29:16;;;;;;;;;;;;;;;6.00;83.42;99601.50;4992532;28;20319;-84
2021/09/20 03:31:42;;;;;;;;;;;;;;;6.08;83.29;99591.97;4993481;28;19926;-84
2021/09/20 03:34:07;;;;;;;;;;;;;;;6.04;83.22;99593.63;4994148;28;19925;-95
2021/09/20 03:36:33;;;;;;;;;;;;;;;6.07;83.38;99593.06;4994071;28;19926;-84
2021/09/20 03:38:59;;;;;;;;;;;;;;;6.00;83.17;99589.84;4992946;28;19933;-87
2021/09/20 03:41:25;;;;;;;;;;;;;;;6.02;83.56;99590.34;4993642;28;19930;-85
2021/09/20 03:43:52;;;;;;;;;;;;;;;5.99;83.43;99590.91;4992438;28;19989;-85
2021/09/20 03:46:18;;;;;;;;;;;;;;;6.00;83.61;99596.06;4990863;28;20465;-89
2021/09/20 03:48:44;;;;;;;;;;;;;;;5.98;83.42;99581.16;5010912;28;19926;-89
2021/09/20 03:51:10;;;;;;;;;;;;;;;6.00;83.38;99587.13;5002319;28;19926;-84
2021/09/20 03:53:36;;;;;;;;;;;;;;;5.95;83.42;99582.50;4999372;28;19937;-83
2021/09/20 03:56:02;;;;;;;;;;;;;;;5.92;83.84;99583.03;5007115;28;21446;-84
2021/09/20 03:58:29;;;;;;;;;;;;;;;5.96;83.77;99586.88;4995137;28;19926;-84
2021/09/20 04:00:58;;;;;;;;;;;;;;;6.02;83.78;99590.34;5048162;28;19971;-85
2021/09/20 04:03:24;;;;;;;;;;;;;;;6.10;83.39;99587.09;5021532;28;20069;-91
2021/09/20 04:05:50;;;;;;;;;;;;;;;6.07;83.22;99584.91;5035291;28;20023;-92
2021/09/20 04:08:16;;;;;;;;;;;;;;;6.00;83.58;99589.84;5041000;28;19925;-91
2021/09/20 04:10:43;;;;;;;;;;;;;;;5.95;83.74;99592.56;5054205;28;19924;-86
2021/09/20 04:13:09;;;;;;;;;;;;;;;6.00;83.85;99593.34;5035507;28;19929;-87
2021/09/20 04:15:36;;;;;;;;;;;;;;;6.05;83.52;99592.53;5035403;28;19925;-80
2021/09/20 04:18:06;;;;;;;;;;;;;;;6.06;83.78;99592.25;5043567;28;19931;-96
2021/09/20 04:20:32;;;;;;;;;;;;;;;6.06;83.61;99586.81;5049892;28;19929;-79
2021/09/20 04:22:58;;;;;;;;;;;;;;;6.08;83.58;99589.25;5052897;28;19933;-92
2021/09/20 04:25:28;;;;;;;;;;;;;;;6.10;83.51;99589.81;5050906;28;20028;-92
2021/09/20 04:27:55;;;;;;;;;;;;;;;6.06;83.58;99594.13;5049055;28;20455;-84
2021/09/20 04:30:21;;;;;;;;;;;;;;;6.09;83.55;99599.00;5053993;28;19929;-78
2021/09/20 04:32:46;;;;;;;;;;;;;;;6.13;83.42;99591.97;5054675;28;19929;-78
2021/09/20 04:35:12;;;;;;;;;;;;;;;6.08;83.41;99597.41;5053380;28;19924;-95
2021/09/20 04:37:38;;;;;;;;;;;;;;;6.04;83.49;99599.03;5054126;28;20492;-90
2021/09/20 04:40:05;;;;;;;;;;;;;;;6.09;83.43;99607.16;5038893;28;19925;-78
2021/09/20 04:42:31;;;;;;;;;;;;;;;6.07;83.62;99612.88;5033812;28;19925;-79
2021/09/20 04:44:57;;;;;;;;;;;;;;;6.06;83.53;99608.53;5033634;28;20458;-79
2021/09/20 04:47:23;;;;;;;;;;;;;;;6.08;83.38;99603.63;5033136;28;19932;-86
2021/09/20 04:52:18;;;;;;;;;;;;;;;6.18;83.29;99610.13;5033729;28;20294;-89
2021/09/20 04:54:44;;;;;;;;;;;;;;;6.20;83.06;99608.75;5015934;28;19932;-88
2021/09/20 04:59:42;;;;;;;;;;;;;;;6.14;83.39;99603.63;5053266;28;19929;-89
2021/09/20 05:02:10;;;;;;;;;;;;;;;6.16;83.42;99613.13;5035682;28;19994;-88
2021/09/20 05:04:38;;;;;;;;;;;;;;;6.19;83.28;99614.44;5035918;28;19925;-87
2021/09/20 05:07:04;;;;;;;;;;;;;;;6.19;83.50;99601.72;5035489;28;19978;-87
2021/09/20 05:09:30;;;;;;;;;;;;;;;6.18;83.50;99608.22;5035395;28;20389;-88
2021/09/20 05:11:56;;;;;;;;;;;;;;;6.15;83.41;99611.47;5035485;28;19932;-89
2021/09/20 05:14:22;;;;;;;;;;;;;;;6.14;84.13;99609.06;5035490;28;20297;-88
2021/09/20 05:16:49;;;;;;;;;;;;;;;6.07;83.84;99610.16;5035294;28;19925;-88
2021/09/20 05:19:15;;;;;;;;;;;;;;;5.98;84.18;99592.81;5035294;28;19924;-88
2021/09/20 05:21:43;;;;;;;;;;;;;;;6.13;83.96;99616.38;5035292;28;19925;-87
2021/09/20 05:24:09;;;;;;;;;;;;;;;6.12;83.74;99614.75;5052985;28;20038;-89
2021/09/20 05:29:22;;;;;;;;;;;;;;;6.15;83.92;99616.91;4991228;28;20023;-87
2021/09/20 05:34:15;;;;;;;;;;;;;;;6.23;84.00;99615.56;4991167;28;19929;-89
2021/09/20 05:36:41;;;;;;;;;;;;;;;6.30;83.64;99614.16;4974772;28;20342;-89
2021/09/20 05:39:06;;;;;;;;;;;;;;;6.28;83.74;99613.59;4942867;28;19930;-95
2021/09/20 05:41:33;;;;;;;;;;;;;;;6.23;83.88;99612.84;4975225;28;19933;-89
2021/09/20 05:43:59;;;;;;;;;;;;;;;6.18;84.26;99620.97;4991314;28;19925;-89
2021/09/20 05:46:25;;;;;;;;;;;;;;;6.21;84.25;99615.00;4974938;28;19932;-89
2021/09/20 05:48:50;;;;;;;;;;;;;;;6.32;84.00;99619.28;4991118;28;19926;-89
2021/09/20 05:51:16;;;;;;;;;;;;;;;6.28;83.76;99613.59;4975116;28;20437;-90
2021/09/20 05:56:11;;;;;;;;;;;;;;;6.23;83.32;99613.66;4989858;28;19976;-90
2021/09/20 05:58:37;;;;;;;;;;;;;;;6.32;84.01;99620.13;4955584;28;20045;-88
2021/09/20 06:01:03;;;;;;;;;;;;;;;6.40;83.91;99615.22;5019910;28;19943;-89
2021/09/20 06:03:29;;;;;;;;;;;;;;;6.43;83.38;99617.38;5014847;28;20399;-92
2021/09/20 06:05:56;;;;;;;;;;;;;;;6.39;83.89;99611.69;5032366;28;19929;-90
2021/09/20 06:08:22;;;;;;;;;;;;;;;6.42;83.83;99613.81;5014916;28;20408;-88
2021/09/20 06:13:13;;;;;;;;;;;;;;;6.38;83.81;99615.47;5032281;28;20028;-88
2021/09/20 06:15:39;;;;;;;;;;;;;;;6.40;83.64;99613.31;5000309;28;19925;-88
2021/09/20 06:18:06;;;;;;;;;;;;;;;6.43;83.62;99610.03;5034548;28;20425;-90
2021/09/20 06:20:33;;;;;;;;;;;;;;;6.39;83.20;99617.13;5015795;28;19925;-91
2021/09/20 06:22:59;;;;;;;;;;;;;;;6.41;83.72;99620.34;5014716;28;19925;-90
2021/09/20 06:25:26;;;;;;;;;;;;;;;6.44;83.98;99611.66;5032310;28;20409;-88
2021/09/20 06:27:52;;;;;;;;;;;;;;;6.50;83.77;99620.59;5014929;28;19963;-90
2021/09/20 06:32:46;;;;;;;;;;;;;;;6.58;83.13;99622.72;5032719;28;19929;-89
2021/09/20 06:35:13;;;;;;;;;;;;;;;6.53;83.55;99623.56;5014355;28;19975;-88
2021/09/20 06:37:39;;;;;;;;;;;;;;;6.56;83.43;99623.00;5031990;28;19925;-88
2021/09/20 06:40:07;;;;;;;;;;;;;;;6.52;83.37;99626.53;5014929;28;19929;-89
2021/09/20 06:42:33;;;;;;;;;;;;;;;6.49;82.94;99630.66;5032015;28;19925;-90
2021/09/20 06:44:59;;;;;;;;;;;;;;;6.54;82.99;99632.53;4997946;28;19932;-90
2021/09/20 06:47:25;;;;;;;;;;;;;;;6.54;83.18;99640.66;5031947;28;19925;-89
2021/09/20 06:49:52;;;;;;;;;;;;;;;6.65;83.11;99631.38;5013889;28;19967;-89
2021/09/20 06:52:18;;;;;;;;;;;;;;;6.72;83.20;99645.50;5014116;28;20321;-88
2021/09/20 06:54:44;;;;;;;;;;;;;;;6.63;82.77;99643.63;5031632;28;20375;-88
2021/09/20 06:57:10;;;;;;;;;;;;;;;6.73;83.32;99646.28;5013869;28;20019;-89
2021/09/20 06:59:36;;;;;;;;;;;;;;;6.74;82.82;99646.00;5031929;28;19965;-89
2021/09/20 07:02:02;;;;;;;;;;;;;;;6.73;82.72;99649.81;5031509;28;20015;-87
2021/09/20 07:04:28;;;;;;;;;;;;;;;6.63;82.60;99636.28;5013863;28;19925;-87
2021/09/20 07:06:54;;;;;;;;;;;;;;;6.65;83.03;99647.66;5031569;28;19968;-87
2021/09/20 07:09:22;;;;;;;;;;;;;;;6.75;82.99;99642.19;5031491;28;19952;-87
2021/09/20 07:11:51;;;;;;;;;;;;;;;6.67;82.77;99639.25;5031492;28;19925;-87
2021/09/20 07:14:18;;;;;;;;;;;;;;;6.72;83.34;99631.91;4997559;28;19940;-89
2021/09/20 07:16:44;;;;;;;;;;;;;;;6.69;83.25;99631.63;5013700;28;19925;-87
2021/09/20 07:19:11;;;;;;;;;;;;;;;6.74;83.50;99631.59;5031541;28;20031;-88
2021/09/20 07:21:37;;;;;;;;;;;;;;;6.80;83.60;99630.50;5031498;28;20076;-88
2021/09/20 07:24:03;;;;;;;;;;;;;;;6.70;83.15;99625.94;5031455;28;19925;-90
2021/09/20 07:26:30;;;;;;;;;;;;;;;6.79;83.22;99624.25;5013905;28;19925;-89
2021/09/20 07:28:56;;;;;;;;;;;;;;;6.77;83.06;99629.16;5013799;28;20394;-88
2021/09/20 07:33:51;;;;;;;;;;;;;;;6.76;82.99;99632.16;5032347;28;19936;-82
2021/09/20 07:36:17;;;;;;;;;;;;;;;6.81;83.14;99640.25;5035216;28;19932;-83
2021/09/20 07:38:42;;;;;;;;;;;;;;;6.94;83.35;99631.50;5035297;28;19925;-83
2021/09/20 07:41:08;;;;;;;;;;;;;;;6.89;82.54;99634.25;5034960;28;19931;-89
2021/09/20 07:43:34;;;;;;;;;;;;;;;6.90;82.63;99635.88;5034950;28;19925;-85
2021/09/20 07:46:00;;;;;;;;;;;;;;;6.84;82.76;99637.00;5034440;28;19925;-84
2021/09/20 07:48:27;;;;;;;;;;;;;;;6.87;82.83;99633.72;5034679;28;19928;-85
2021/09/20 07:50:53;;;;;;;;;;;;;;;6.99;83.12;99638.81;5017201;28;19956;-84
2021/09/20 07:53:19;;;;;;;;;;;;;;;7.10;83.11;99634.13;5034663;28;19925;-82
2021/09/20 07:55:45;;;;;;;;;;;;;;;7.01;82.54;99637.44;5034572;28;19925;-80
2021/09/20 07:58:13;;;;;;;;;;;;;;;6.96;82.23;99636.66;5034893;28;19925;-81
2021/09/20 08:00:42;;;;;;;;;;;;;;;6.90;82.61;99629.63;5034579;28;20301;-81
2021/09/20 08:03:10;;;;;;;;;;;;;;;7.04;83.25;99627.91;5034583;28;20412;-81
2021/09/20 08:05:36;;;;;;;;;;;;;;;7.00;82.69;99643.16;5016649;28;19932;-80
2021/09/20 08:08:03;;;;;;;;;;;;;;;6.96;82.61;99633.94;5034375;28;20558;-81
2021/09/20 08:10:29;;;;;;;;;;;;;;;7.00;83.30;99626.84;5033936;28;19925;-81
2021/09/20 08:12:55;;;;;;;;;;;;;;;7.03;82.49;99631.72;5017051;28;19931;-80
2021/09/20 08:15:21;;;;;;;;;;;;;;;7.16;82.91;99635.72;5034239;28;19925;-80
2021/09/20 08:17:48;;;;;;;;;;;;;;;7.17;82.45;99629.19;5034474;28;19925;-85
2021/09/20 08:20:14;;;;;;;;;;;;;;;7.43;81.81;99629.81;5034085;28;20294;-86
2021/09/20 08:22:40;;;;;;;;;;;;;;;7.41;80.90;99627.34;5034330;28;20390;-83
2021/09/20 08:25:07;;;;;;;;;;;;;;;7.29;81.48;99625.00;5034124;28;19972;-81
2021/09/20 08:27:35;;;;;;;;;;;;;;;7.26;82.07;99625.56;5034111;28;20023;-82
2021/09/20 08:30:01;;;;;;;;;;;;;;;7.27;81.80;99632.63;5034147;28;20371;-82
2021/09/20 08:32:27;;;;;;;;;;;;;;;7.19;81.66;99625.09;5034077;28;19973;-81
2021/09/20 08:34:53;;;;;;;;;;;;;;;7.16;82.19;99620.22;5033982;28;20369;-81
2021/09/20 08:37:19;;;;;;;;;;;;;;;7.11;82.63;99620.25;5016364;28;20031;-81
2021/09/20 08:39:48;;;;;;;;;;;;;;;7.04;82.76;99626.00;5033779;28;19960;-81
2021/09/20 08:42:15;;;;;;;;;;;;;;;7.11;82.94;99627.59;5033860;28;19951;-82
2021/09/20 08:44:41;;;;;;;;;;;;;;;7.16;82.70;99625.66;5015696;28;20361;-86
2021/09/20 08:47:07;;;;;;;;;;;;;;;7.20;81.98;99624.00;5033768;28;19925;-86
2021/09/20 08:49:33;;;;;;;;;;;;;;;7.25;82.40;99632.13;5033538;28;19924;-84
2021/09/20 08:51:59;;;;;;;;;;;;;;;7.23;82.45;99628.88;5033565;28;19928;-85
2021/09/20 08:54:26;;;;;;;;;;;;;;;7.19;82.16;99619.66;5033650;28;20126;-85
2021/09/20 08:56:54;;;;;;;;;;;;;;;7.15;82.72;99621.31;5033417;28;19925;-85
2021/09/20 08:59:19;;;;;;;;;;;;;;;7.13;82.53;99614.53;5015927;28;19987;-86
2021/09/20 09:01:50;;;;;;;;;;;;;;;7.10;83.05;99625.97;5033387;28;20290;-85
2021/09/20 09:04:22;;;;;;;;;;;;;;;7.15;82.67;99634.91;5033417;28;20350;-87
2021/09/20 09:06:52;;;;;;;;;;;;;;;7.15;82.44;99621.31;5033856;28;19925;-87
2021/09/20 09:09:25;;;;;;;;;;;;;;;7.22;82.59;99615.56;5033504;28;20398;-87
2021/09/20 09:11:52;;;;;;;;;;;;;;;7.25;82.49;99618.53;5033557;28;20409;-88
2021/09/20 09:14:18;;;;;;;;;;;;;;;7.33;82.71;99630.69;5015700;28;19979;-85
2021/09/20 09:16:44;;;;;;;;;;;;;;;7.41;82.25;99621.09;5033308;28;20027;-86
2021/09/20 09:19:12;;;;;;;;;;;;;;;7.34;82.11;99621.44;5033501;28;20424;-85
2021/09/20 09:21:41;;;;;;;;;;;;;;;7.35;82.34;99627.69;5033529;28;19928;-83
2021/09/20 09:24:08;;;;;;;;;;;;;;;7.30;82.49;99626.63;5033014;28;19925;-85
2021/09/20 09:26:37;;;;;;;;;;;;;;;7.24;82.58;99627.75;5033224;28;20023;-85
2021/09/20 09:29:20;;;;;;;;;;;;;;;7.30;83.06;99615.75;5033134;28;20413;-84
2021/09/20 09:31:56;;;;;;;;;;;;;;;7.28;82.76;99626.13;5033003;28;19962;-86
2021/09/20 09:34:23;;;;;;;;;;;;;;;7.25;82.90;99632.13;5032915;28;20012;-81
2021/09/20 09:36:49;;;;;;;;;;;;;;;7.42;82.88;99631.72;5033101;28;19925;-83
2021/09/20 09:39:28;;;;;;;;;;;;;;;7.47;82.29;99628.13;5033058;28;19925;-84
2021/09/20 09:41:54;;;;;;;;;;;;;;;7.42;82.22;99618.13;5033246;28;19975;-84
2021/09/20 09:44:29;;;;;;;;;;;;;;;7.40;82.73;99616.78;5015534;28;19971;-87
2021/09/20 09:46:55;;;;;;;;;;;;;;;7.43;82.56;99619.72;5033418;28;19925;-89
2021/09/20 09:49:22;;;;;;;;;;;;;;;7.47;82.38;99626.22;5033924;28;19925;-84
2021/09/20 09:52:12;;;;;;;;;;;;;;;7.40;82.67;99633.09;5034470;28;19931;-93
2021/09/20 09:54:42;;;;;;;;;;;;;;;7.37;82.99;99620.06;5034876;28;20008;-82
2021/09/20 09:59:42;;;;;;;;;;;;;;;7.47;82.77;99619.97;5032321;28;20432;-82
2021/09/20 10:02:18;;;;;;;;;;;;;;;7.50;82.64;99620.22;5032619;28;19925;-82
2021/09/20 10:04:53;;;;;;;;;;;;;;;7.48;82.50;99614.28;5032410;28;19933;-82
2021/09/20 10:07:29;;;;;;;;;;;;;;;7.52;82.46;99614.50;5032209;28;19925;-82
2021/09/20 10:09:56;;;;;;;;;;;;;;;7.53;82.60;99618.84;5032324;28;19975;-81
2021/09/20 10:12:24;;;;;;;;;;;;;;;7.56;82.65;99623.72;5032266;28;19961;-84
2021/09/20 10:14:53;;;;;;;;;;;;;;;7.59;82.39;99623.16;5014889;28;19975;-91
2021/09/20 10:17:19;;;;;;;;;;;;;;;7.59;82.60;99628.59;5032370;28;19925;-83
2021/09/20 10:19:48;;;;;;;;;;;;;;;7.49;82.76;99623.22;5030685;28;19934;-88
2021/09/20 10:22:16;;;;;;;;;;;;;;;7.51;83.20;99619.09;5031794;28;19931;-88
2021/09/20 10:24:43;;;;;;;;;;;;;;;7.60;82.70;99622.03;5031349;28;20325;-85
2021/09/20 10:27:11;;;;;;;;;;;;;;;7.49;82.70;99625.94;5031207;28;20011;-88
2021/09/20 10:29:39;;;;;;;;;;;;;;;7.41;83.35;99618.38;5030969;28;20438;-88
2021/09/20 10:32:05;;;;;;;;;;;;;;;7.42;83.41;99626.28;5030974;28;20278;-87
2021/09/20 10:34:31;;;;;;;;;;;;;;;7.48;83.33;99621.59;5030788;28;19925;-88
2021/09/20 10:37:00;;;;;;;;;;;;;;;7.46;83.31;99618.34;5030387;28;19929;-83
2021/09/20 10:39:45;;;;;;;;;;;;;;;7.56;83.41;99628.34;5030054;28;20302;-88
2021/09/20 10:42:31;;;;;;;;;;;;;;;7.56;82.92;99622.91;5028955;28;19928;-89
2021/09/20 10:44:57;;;;;;;;;;;;;;;7.52;82.91;99622.66;5029194;28;19932;-88
2021/09/20 10:47:24;;;;;;;;;;;;;;;7.57;83.22;99625.31;5032443;28;19925;-82
2021/09/20 10:49:50;;;;;;;;;;;;;;;7.55;83.20;99630.25;5029104;28;19968;-83
2021/09/20 10:52:16;;;;;;;;;;;;;;;7.58;83.33;99635.09;5028961;28;20313;-88
2021/09/20 10:55:03;;;;;;;;;;;;;;;7.67;83.29;99629.88;5028917;28;19932;-88
2021/09/20 10:57:30;;;;;;;;;;;;;;;7.62;82.94;99622.56;5028482;28;19956;-83
2021/09/20 11:00:14;;;;;;;;;;;;;;;7.72;83.06;99625.19;5028172;28;19929;-83
2021/09/20 11:02:41;;;;;;;;;;;;;;;7.69;83.20;99630.41;5028474;28;19925;-85
2021/09/20 11:05:07;;;;;;;;;;;;;;;7.67;82.83;99624.44;5028399;28;19925;-85
2021/09/20 11:07:47;;;;;;;;;;;;;;;7.72;83.12;99621.66;5029459;28;19932;-86
2021/09/20 11:10:15;;;;;;;;;;;;;;;7.75;83.05;99623.81;5031916;28;19925;-87
2021/09/20 11:12:55;;;;;;;;;;;;;;;7.78;82.82;99623.22;5028098;28;20127;-84
2021/09/20 11:15:22;;;;;;;;;;;;;;;7.79;82.97;99622.16;5033151;28;20020;-81
2021/09/20 11:17:49;;;;;;;;;;;;;;;7.83;82.63;99625.09;5035778;28;20359;-89
2021/09/20 11:20:21;;;;;;;;;;;;;;;7.81;82.34;99630.00;5035451;28;19948;-83
2021/09/20 11:22:48;;;;;;;;;;;;;;;7.87;82.77;99637.03;5017760;28;19924;-83
2021/09/20 11:25:16;;;;;;;;;;;;;;;7.91;82.79;99622.59;5035074;28;20011;-85
2021/09/20 11:27:45;;;;;;;;;;;;;;;7.89;82.66;99632.13;5035364;28;20032;-85
2021/09/20 11:30:15;;;;;;;;;;;;;;;7.99;82.71;99632.03;5035235;28;20393;-89
2021/09/20 11:32:45;;;;;;;;;;;;;;;7.89;82.68;99629.41;5034808;28;20418;-91
2021/09/20 11:35:12;;;;;;;;;;;;;;;7.87;82.91;99626.94;5035068;28;19968;-86
2021/09/20 11:37:38;;;;;;;;;;;;;;;7.85;82.60;99631.09;5042717;28;20369;-84
2021/09/20 11:40:06;;;;;;;;;;;;;;;7.86;82.62;99633.50;5048590;28;19925;-84
2021/09/20 11:42:37;;;;;;;;;;;;;;;7.83;82.52;99628.63;5033970;28;19925;-86
2021/09/20 11:45:05;;;;;;;;;;;;;;;7.88;82.95;99638.66;5033109;28;19965;-88
2021/09/20 11:47:34;;;;;;;;;;;;;;;7.90;83.01;99639.19;5039706;28;19929;-86
2021/09/20 11:50:08;;;;;;;;;;;;;;;7.89;82.90;99632.94;5036541;28;20036;-83
2021/09/20 11:52:39;;;;;;;;;;;;;;;7.93;82.87;99628.53;5018202;28;19979;-88
2021/09/20 11:55:25;;;;;;;;;;;;;;;7.87;82.84;99634.31;5016334;28;20024;-84
2021/09/20 11:57:52;;;;;;;;;;;;;;;7.84;82.98;99634.88;5033967;28;19948;-86
2021/09/20 12:00:20;;;;;;;;;;;;;;;7.89;83.04;99624.75;5047890;28;19925;-85
2021/09/20 12:02:48;;;;;;;;;;;;;;;7.82;83.10;99628.94;5041140;28;19925;-85
2021/09/20 12:05:21;;;;;;;;;;;;;;;7.80;83.16;99625.66;5037768;28;19978;-86
2021/09/20 12:07:53;;;;;;;;;;;;;;;7.89;83.53;99623.97;5030564;28;19936;-85
2021/09/20 12:10:28;;;;;;;;;;;;;;;7.80;82.92;99622.94;5033692;28;20012;-83
2021/09/20 12:12:57;;;;;;;;;;;;;;;7.85;83.46;99625.63;5033336;28;19929;-86
2021/09/20 12:15:26;;;;;;;;;;;;;;;7.94;83.06;99630.13;5033890;28;19925;-84
2021/09/20 12:18:01;;;;;;;;;;;;;;;8.02;83.30;99636.09;5016583;28;20746;-88
2021/09/20 12:20:33;;;;;;;;;;;;;;;7.99;82.54;99626.56;5030087;28;19967;-93
2021/09/20 12:23:00;;;;;;;;;;;;;;;8.02;82.75;99633.34;5025872;28;19925;-95
2021/09/20 12:25:29;;;;;;;;;;;;;;;7.99;82.83;99632.81;5034984;28;19932;-84
2021/09/20 12:27:56;;;;;;;;;;;;;;;8.02;83.21;99633.34;5000537;28;19972;-79
2021/09/20 12:30:24;;;;;;;;;;;;;;;8.07;83.07;99625.13;5036275;28;20390;-83
2021/09/20 12:33:01;;;;;;;;;;;;;;;8.01;82.84;99629.81;5016592;28;20020;-94
2021/09/20 12:35:30;;;;;;;;;;;;;;;8.02;82.92;99634.16;5035335;28;19924;-91
2021/09/20 12:38:12;;;;;;;;;;;;;;;8.15;83.35;99630.75;5034087;28;19929;-83
2021/09/20 12:40:37;;;;;;;;;;;;;;;8.42;82.39;99630.19;5033188;28;20386;-83
2021/09/20 12:43:11;;;;;;;;;;;;;;;8.58;80.91;99630.84;5032642;28;19936;-91
2021/09/20 12:45:39;;;;;;;;;;;;;;;8.67;80.57;99637.22;5032825;28;19986;-85
2021/09/20 12:48:05;;;;;;;;;;;;;;;8.74;79.94;99630.63;5032670;28;20418;-82
2021/09/20 12:50:37;;;;;;;;;;;;;;;8.72;79.89;99630.13;5032285;28;19925;-86
2021/09/20 12:53:02;;;;;;;;;;;;;;;8.77;79.62;99630.03;5032208;28;20019;-84
2021/09/20 12:55:35;;;;;;;;;;;;;;;8.54;79.69;99637.94;5031907;28;19932;-92
2021/09/20 12:58:04;;;;;;;;;;;;;;;8.47;80.41;99638.31;5031673;28;19984;-91
2021/09/20 13:00:34;;;;;;;;;;;;;;;8.45;81.05;99637.00;5014233;28;20356;-92
2021/09/20 13:03:08;;;;;;;;;;;;;;;8.35;81.19;99642.53;5031689;28;20362;-94
2021/09/20 13:05:41;;;;;;;;;;;;;;;8.26;81.10;99638.81;5031144;28;20304;-81
2021/09/20 13:08:08;;;;;;;;;;;;;;;8.30;81.17;99639.84;5030988;28;20390;-81
2021/09/20 13:10:34;;;;;;;;;;;;;;;8.26;81.27;99639.63;5030561;28;19921;-93
2021/09/20 13:13:00;;;;;;;;;;;;;;;8.16;81.73;99639.72;5030388;28;19925;-87
2021/09/20 13:15:27;;;;;;;;;;;;;;;8.11;82.26;99651.50;5029934;28;19929;-90
2021/09/20 13:17:54;;;;;;;;;;;;;;;8.05;82.01;99641.75;5022353;28;19965;-85
2021/09/20 13:20:30;;;;;;;;;;;;;;;8.09;82.23;99631.91;5030116;28;19925;-89
2021/09/20 13:23:03;;;;;;;;;;;;;;;8.11;82.26;99637.88;5029777;28;20028;-88
2021/09/20 13:25:33;;;;;;;;;;;;;;;8.11;81.79;99629.72;5030106;28;19925;-86
2021/09/20 13:28:01;;;;;;;;;;;;;;;8.10;82.28;99636.25;5028835;28;20027;-93
2021/09/20 13:30:27;;;;;;;;;;;;;;;8.09;82.00;99631.09;5011785;28;19951;-91
2021/09/20 13:32:53;;;;;;;;;;;;;;;8.09;82.33;99644.72;5029392;28;20048;-85